X  Cerrar Datos meteorológicos de aviación METAR        LECH Castellon-Costa Azahar
Temperatura
21°C Temperatura
16°C Punto de rocío
73% Humedad



Viento
2 MPH
4 KM/H
1 M/S
2 NUDO



-1°
VRB
Condiciones actuales

Clear Claro
Presión 1018 (hPa) - 30.06 (inHg)
Visibilidad 6 (milla) - 9 (km)
Aeropuerto
Código de aeropuerto LECH

localidad: Castellon-Costa Azahar
Distancia: 45 (mi)

Metar:
METAR LECH 212300Z AUTO VRB02KT 9000 NCD 21/16 Q1019

Hora: 22-07-2024 01:00 CEST